createdAt,value
2018-11-12T00:00:40.065Z,3.27
2018-11-12T00:03:08.583Z,3.13
2018-11-12T00:05:38.337Z,3.07
2018-11-12T00:08:07.009Z,3.00
2018-11-12T00:10:35.495Z,2.90
2018-11-12T00:13:04.050Z,2.90
2018-11-12T00:15:33.977Z,3.23
2018-11-12T00:18:03.064Z,3.50
2018-11-12T00:20:31.547Z,3.00
2018-11-12T00:23:00.151Z,2.87
2018-11-12T00:25:28.635Z,2.60
2018-11-12T00:27:57.207Z,2.87
2018-11-12T00:30:25.785Z,2.80
2018-11-12T00:32:56.768Z,3.13
2018-11-12T00:35:25.268Z,2.77
2018-11-12T00:37:53.733Z,2.57
2018-11-12T00:40:22.263Z,2.70
2018-11-12T00:42:50.872Z,3.00
2018-11-12T00:45:19.350Z,2.80
2018-11-12T00:47:47.850Z,2.60
2018-11-12T00:50:16.571Z,2.40
2018-11-12T00:52:45.078Z,2.50
2018-11-12T00:55:15.986Z,3.03
2018-11-12T00:57:44.952Z,2.67
2018-11-12T01:00:17.037Z,2.60
2018-11-12T01:02:49.323Z,2.90
2018-11-12T01:05:18.599Z,2.73
2018-11-12T01:07:47.781Z,2.40
2018-11-12T01:10:17.416Z,2.73
2018-11-12T01:12:46.295Z,2.70
2018-11-12T01:15:18.982Z,2.40
2018-11-12T01:17:47.472Z,2.57
2018-11-12T01:20:17.152Z,2.80
2018-11-12T01:22:49.101Z,2.80
2018-11-12T01:25:17.730Z,2.53
2018-11-12T01:27:49.255Z,2.43
2018-11-12T01:30:19.254Z,2.60
2018-11-12T01:32:48.164Z,2.33
2018-11-12T01:35:18.388Z,2.40
2018-11-12T01:37:47.520Z,2.27
2018-11-12T01:40:18.240Z,2.50
2018-11-12T01:42:46.815Z,2.70
2018-11-12T01:45:20.769Z,2.60
2018-11-12T01:47:50.428Z,2.57
2018-11-12T01:50:21.670Z,2.23
2018-11-12T01:52:52.002Z,2.10
2018-11-12T01:55:20.575Z,2.63
2018-11-12T01:57:50.616Z,2.37
2018-11-12T02:00:22.466Z,2.20
2018-11-12T02:02:54.241Z,2.40
2018-11-12T02:05:25.786Z,2.50
2018-11-12T02:07:57.749Z,2.90
2018-11-12T02:10:29.919Z,2.40
2018-11-12T02:12:58.992Z,2.30
2018-11-12T02:15:30.728Z,2.33
2018-11-12T02:18:03.469Z,2.37
2018-11-12T02:20:31.961Z,2.10
2018-11-12T02:23:00.471Z,2.23
2018-11-12T02:25:30.247Z,2.20
2018-11-12T02:28:01.197Z,2.27
2018-11-12T02:30:35.119Z,2.10
2018-11-12T02:33:03.627Z,2.23
2018-11-12T02:35:32.768Z,2.43
2018-11-12T02:38:01.262Z,2.40
2018-11-12T02:40:29.750Z,2.40
2018-11-12T02:42:58.262Z,2.50
2018-11-12T02:45:26.790Z,2.83
2018-11-12T02:47:56.652Z,2.30
2018-11-12T02:50:25.133Z,2.30
2018-11-12T02:52:53.625Z,2.70
2018-11-12T02:55:23.633Z,2.60
2018-11-12T02:57:52.093Z,2.80
2018-11-12T03:00:21.800Z,2.60
2018-11-12T03:02:50.367Z,2.80
2018-11-12T03:05:18.945Z,2.97
2018-11-12T03:07:48.346Z,2.90
2018-11-12T03:10:20.567Z,2.70
2018-11-12T03:12:49.102Z,2.63
2018-11-12T03:15:19.840Z,3.00
2018-11-12T03:17:50.295Z,2.70
2018-11-12T03:20:20.086Z,2.83
2018-11-12T03:22:50.019Z,2.90
2018-11-12T03:25:22.113Z,2.97
2018-11-12T03:27:50.971Z,2.60
2018-11-12T03:30:20.695Z,2.77
2018-11-12T03:32:49.879Z,2.53
2018-11-12T03:35:18.381Z,2.87
2018-11-12T03:37:47.779Z,3.17
2018-11-12T03:40:18.503Z,2.53
2018-11-12T03:42:48.298Z,3.00
2018-11-12T03:45:18.455Z,2.80
2018-11-12T03:47:46.953Z,2.90
2018-11-12T03:50:17.143Z,3.23
2018-11-12T03:52:45.945Z,3.23
2018-11-12T03:55:15.838Z,3.23
2018-11-12T03:57:44.446Z,3.37
2018-11-12T04:00:18.680Z,3.00
2018-11-12T04:02:47.113Z,3.03
2018-11-12T04:05:18.695Z,3.20
2018-11-12T04:07:47.180Z,3.37
2018-11-12T04:10:18.234Z,3.00
2018-11-12T04:12:46.711Z,3.40
2018-11-12T04:15:17.749Z,3.00
2018-11-12T04:17:47.038Z,3.20
2018-11-12T04:20:17.601Z,3.30
2018-11-12T04:22:51.502Z,3.20
2018-11-12T04:25:22.846Z,3.27
2018-11-12T04:27:51.406Z,3.30
2018-11-12T04:30:19.981Z,3.13
2018-11-12T04:32:48.798Z,2.90
2018-11-12T04:35:17.282Z,2.80
2018-11-12T04:37:45.817Z,2.77
2018-11-12T04:40:16.231Z,2.80
2018-11-12T04:42:45.203Z,2.60
2018-11-12T04:45:15.390Z,3.40
2018-11-12T04:47:45.418Z,2.87
2018-11-12T04:50:16.289Z,3.30
2018-11-12T04:52:44.834Z,2.87
2018-11-12T04:55:17.966Z,2.80
2018-11-12T04:57:46.980Z,3.17
2018-11-12T05:00:17.755Z,2.77
2018-11-12T05:02:46.276Z,2.60
2018-11-12T05:05:16.048Z,2.50
2018-11-12T05:07:45.156Z,2.70
2018-11-12T05:10:17.131Z,2.70
2018-11-12T05:12:46.112Z,2.33
2018-11-12T05:15:17.370Z,2.50
2018-11-12T05:17:46.140Z,2.60
2018-11-12T05:20:16.994Z,2.63
2018-11-12T05:22:45.670Z,3.03
2018-11-12T05:25:14.162Z,2.93
2018-11-12T05:27:42.698Z,2.80
2018-11-12T05:30:14.959Z,2.67
2018-11-12T05:32:44.139Z,2.80
2018-11-12T05:35:13.702Z,2.90
2018-11-12T05:37:42.407Z,2.50
2018-11-12T05:40:13.974Z,2.50
2018-11-12T05:42:42.955Z,2.53
2018-11-12T05:45:11.937Z,2.80
2018-11-12T05:47:41.595Z,2.77
2018-11-12T05:50:15.521Z,2.60
2018-11-12T05:52:45.238Z,2.33
2018-11-12T05:55:15.331Z,2.97
2018-11-12T05:58:12.625Z,3.30
2018-11-12T06:00:42.485Z,3.10
2018-11-12T06:03:11.088Z,2.80
2018-11-12T06:05:39.578Z,2.43
2018-11-12T06:08:08.034Z,3.03
2018-11-12T06:10:36.725Z,2.67
2018-11-12T06:13:05.727Z,3.07
2018-11-12T06:15:35.327Z,2.80
2018-11-12T06:18:04.294Z,3.03
2018-11-12T06:20:33.709Z,3.07
2018-11-12T06:23:02.271Z,3.00
2018-11-12T06:25:33.966Z,3.50
2018-11-12T06:28:02.455Z,3.23
2018-11-12T06:30:32.562Z,3.50
2018-11-12T06:33:01.049Z,3.47
2018-11-12T06:35:29.523Z,3.60
2018-11-12T06:37:58.833Z,3.90
2018-11-12T06:40:28.237Z,4.43
2018-11-12T06:42:56.758Z,4.87
2018-11-12T06:45:27.865Z,4.90
2018-11-12T06:47:57.159Z,4.60
2018-11-12T06:50:27.876Z,4.80
2018-11-12T06:52:56.800Z,4.43
2018-11-12T06:55:25.369Z,4.77
2018-11-12T06:57:56.010Z,5.30
2018-11-12T07:00:26.031Z,4.77
2018-11-12T07:02:54.589Z,4.43
2018-11-12T07:05:25.811Z,5.07
2018-11-12T07:07:54.329Z,4.30
2018-11-12T07:10:24.254Z,4.60
2018-11-12T07:12:53.824Z,4.43
2018-11-12T07:15:24.783Z,4.87
2018-11-12T07:17:53.257Z,7.83
2018-11-12T07:20:22.989Z,8.27
2018-11-12T07:22:51.783Z,7.93
2018-11-12T07:25:21.729Z,8.37
2018-11-12T07:27:50.281Z,7.80
2018-11-12T07:30:21.925Z,7.10
2018-11-12T07:32:51.523Z,7.50
2018-11-12T07:35:21.123Z,7.67
2018-11-12T07:37:52.304Z,7.97
2018-11-12T07:40:21.263Z,7.90
2018-11-12T07:42:49.811Z,8.40
2018-11-12T07:45:20.495Z,9.33
2018-11-12T07:47:50.002Z,8.87
2018-11-12T07:50:20.070Z,7.43
2018-11-12T07:52:48.573Z,7.13
2018-11-12T07:55:19.000Z,8.07
2018-11-12T07:57:48.608Z,7.80
2018-11-12T08:00:20.731Z,7.47
2018-11-12T08:02:50.397Z,7.23
2018-11-12T08:05:18.928Z,6.07
2018-11-12T08:07:47.598Z,6.20
2018-11-12T08:10:17.622Z,6.67
2018-11-12T08:12:46.850Z,7.40
2018-11-12T08:15:16.851Z,8.90
2018-11-12T08:17:46.501Z,6.63
2018-11-12T08:20:17.264Z,5.97
2018-11-12T08:22:46.828Z,5.50
2018-11-12T08:25:15.427Z,5.40
2018-11-12T08:27:44.573Z,5.40
2018-11-12T08:30:20.024Z,5.40
2018-11-12T08:32:49.922Z,5.13
2018-11-12T08:35:20.400Z,5.60
2018-11-12T08:37:49.537Z,5.60
2018-11-12T08:40:19.452Z,6.73
2018-11-12T08:42:47.915Z,4.93
2018-11-12T08:45:16.432Z,6.13
2018-11-12T08:47:47.053Z,5.80
2018-11-12T08:50:20.711Z,6.00
2018-11-12T08:52:50.556Z,7.20
2018-11-12T08:55:23.352Z,7.00
2018-11-12T08:57:54.813Z,6.97
2018-11-12T09:00:24.216Z,6.77
2018-11-12T09:02:53.845Z,6.47
2018-11-12T09:05:23.844Z,6.70
2018-11-12T09:07:53.957Z,6.83
2018-11-12T09:10:24.410Z,7.50
2018-11-12T09:12:52.951Z,7.23
2018-11-12T09:15:21.453Z,7.50
2018-11-12T09:17:50.146Z,8.03
2018-11-12T09:20:20.102Z,7.00
2018-11-12T09:22:48.778Z,6.47
2018-11-12T09:25:18.579Z,6.80
2018-11-12T09:27:47.167Z,6.63
2018-11-12T09:30:18.914Z,7.03
2018-11-12T09:32:47.751Z,6.10
2018-11-12T09:35:17.529Z,6.40
2018-11-12T09:37:47.945Z,6.67
2018-11-12T09:40:20.163Z,7.10
2018-11-12T09:42:49.154Z,7.77
2018-11-12T09:45:18.309Z,7.97
2018-11-12T09:47:47.046Z,7.20
2018-11-12T09:50:20.002Z,7.97
2018-11-12T09:52:49.707Z,6.97
2018-11-12T09:55:18.842Z,6.60
2018-11-12T09:57:49.469Z,6.60
2018-11-12T10:00:19.271Z,7.73
2018-11-12T10:02:49.221Z,7.53
2018-11-12T10:05:18.712Z,6.97
2018-11-12T10:07:49.209Z,7.13
2018-11-12T10:10:36.706Z,7.43
2018-11-12T10:13:06.056Z,7.90
2018-11-12T10:15:35.919Z,7.63
2018-11-12T10:18:03.794Z,7.70
2018-11-12T10:20:30.259Z,7.20
2018-11-12T10:23:00.929Z,8.00
2018-11-12T10:25:30.457Z,7.37
2018-11-12T10:27:59.679Z,7.80
2018-11-12T10:30:28.211Z,7.70
2018-11-12T10:32:56.719Z,7.60
2018-11-12T10:35:25.207Z,7.20
2018-11-12T10:37:54.951Z,7.10
2018-11-12T10:40:24.584Z,7.17
2018-11-12T10:42:53.211Z,6.40
2018-11-12T10:45:21.917Z,6.77
2018-11-12T10:47:51.449Z,6.73
2018-11-12T10:50:20.313Z,6.90
2018-11-12T10:52:48.905Z,7.63
2018-11-12T10:55:23.013Z,7.03
2018-11-12T10:57:52.116Z,7.07
2018-11-12T11:00:33.069Z,6.93
2018-11-12T11:04:10.134Z,6.83
2018-11-12T11:06:38.628Z,7.73
2018-11-12T11:09:09.594Z,7.47
2018-11-12T11:11:38.154Z,9.20
2018-11-12T11:14:06.660Z,8.10
2018-11-12T11:16:35.349Z,6.33
2018-11-12T11:19:03.941Z,6.50
2018-11-12T11:21:32.440Z,6.90
2018-11-12T11:24:00.925Z,7.43
2018-11-12T11:26:29.810Z,6.93
2018-11-12T11:28:59.222Z,6.83
2018-11-12T11:31:27.710Z,5.93
2018-11-12T11:33:56.191Z,5.80
2018-11-12T11:36:24.692Z,5.37
2018-11-12T11:38:53.454Z,4.63
2018-11-12T11:41:23.683Z,4.60
2018-11-12T11:43:52.321Z,4.80
2018-11-12T11:46:20.768Z,4.40
2018-11-12T11:48:49.792Z,4.20
2018-11-12T11:51:18.382Z,3.93
2018-11-12T11:53:47.614Z,4.07
2018-11-12T11:56:16.219Z,4.23
2018-11-12T11:58:44.796Z,4.20
2018-11-12T12:01:13.371Z,3.87
2018-11-12T12:03:41.878Z,3.53
2018-11-12T12:06:10.983Z,3.43
2018-11-12T12:08:39.565Z,3.70
2018-11-12T12:11:08.228Z,3.80
2018-11-12T12:13:36.818Z,3.47
2018-11-12T12:16:05.602Z,3.60
2018-11-12T12:18:34.127Z,3.03
2018-11-12T12:21:02.849Z,4.33
2018-11-12T12:23:31.328Z,3.00
2018-11-12T12:25:59.997Z,2.90
2018-11-12T12:28:28.732Z,2.40
2018-11-12T12:30:57.538Z,2.40
2018-11-12T12:33:26.790Z,2.23
2018-11-12T12:35:55.313Z,2.60
2018-11-12T12:38:23.846Z,2.53
2018-11-12T12:40:52.406Z,2.60
2018-11-12T12:43:20.880Z,2.37
2018-11-12T12:45:49.525Z,2.33
2018-11-12T12:48:17.880Z,2.40
2018-11-12T12:50:46.919Z,2.20
2018-11-12T12:53:16.247Z,2.67
2018-11-12T12:55:46.505Z,2.53
2018-11-12T12:58:15.144Z,2.70
2018-11-12T13:00:43.691Z,2.67
2018-11-12T13:03:12.166Z,2.20
2018-11-12T13:05:40.775Z,2.17
2018-11-12T13:08:09.256Z,2.10
2018-11-12T13:10:37.744Z,1.83
2018-11-12T13:13:08.008Z,2.17
2018-11-12T13:15:37.364Z,1.87
2018-11-12T13:18:05.906Z,2.10
2018-11-12T13:20:34.589Z,1.90
2018-11-12T13:23:03.052Z,2.00
2018-11-12T13:25:31.551Z,2.10
2018-11-12T13:28:01.104Z,2.07
2018-11-12T13:30:30.346Z,2.30
2018-11-12T13:32:58.842Z,2.30
2018-11-12T13:35:27.349Z,2.40
2018-11-12T13:37:56.202Z,2.70
2018-11-12T13:40:27.518Z,2.50
2018-11-12T13:42:58.533Z,2.57
2018-11-12T13:45:27.833Z,3.20
2018-11-12T13:47:58.797Z,3.33
2018-11-12T13:50:28.810Z,3.53
2018-11-12T13:52:57.802Z,3.93
2018-11-12T13:55:26.917Z,4.30
2018-11-12T13:57:55.434Z,4.10
2018-11-12T14:00:28.397Z,4.13
2018-11-12T14:02:57.441Z,4.37
2018-11-12T14:05:26.749Z,4.40
2018-11-12T14:07:55.264Z,4.33
2018-11-12T14:10:26.362Z,4.10
2018-11-12T14:12:56.108Z,4.13
2018-11-12T14:15:25.150Z,3.97
2018-11-12T14:17:54.303Z,3.47
2018-11-12T14:20:23.418Z,2.90
2018-11-12T14:22:51.930Z,3.10
2018-11-12T14:25:21.489Z,3.40
2018-11-12T14:27:51.059Z,3.10
2018-11-12T14:30:21.103Z,3.00
2018-11-12T14:32:49.665Z,4.30
2018-11-12T14:35:18.273Z,4.63
2018-11-12T14:37:47.221Z,5.87
2018-11-12T14:40:18.723Z,6.83
2018-11-12T14:42:47.607Z,4.90
2018-11-12T14:45:17.608Z,3.70
2018-11-12T14:47:47.300Z,3.37
2018-11-12T14:50:15.835Z,3.40
2018-11-12T14:52:44.713Z,3.60
2018-11-12T14:55:15.177Z,3.90
2018-11-12T14:57:43.706Z,5.20
2018-11-12T15:00:18.535Z,3.77
2018-11-12T15:02:47.022Z,6.10
2018-11-12T15:05:17.110Z,4.30
2018-11-12T15:07:45.606Z,4.50
2018-11-12T15:10:14.884Z,4.47
2018-11-12T15:12:44.230Z,4.70
2018-11-12T15:15:13.251Z,4.47
2018-11-12T15:17:42.002Z,4.33
2018-11-12T15:20:12.650Z,4.53
2018-11-12T15:22:41.252Z,4.80
2018-11-12T15:25:12.904Z,4.57
2018-11-12T15:27:43.200Z,4.40
2018-11-12T15:30:14.586Z,4.40
2018-11-12T15:32:43.874Z,5.07
2018-11-12T15:35:13.075Z,4.73
2018-11-12T15:37:42.575Z,4.67
2018-11-12T15:40:11.801Z,4.33
2018-11-12T15:42:40.762Z,3.83
2018-11-12T15:45:13.783Z,3.50
2018-11-12T15:47:43.060Z,3.60
2018-11-12T15:50:27.660Z,2.90
2018-11-12T15:52:56.378Z,3.27
2018-11-12T15:55:24.926Z,3.47
2018-11-12T15:57:54.492Z,3.40
2018-11-12T16:00:22.910Z,3.40
2018-11-12T16:02:51.442Z,3.43
2018-11-12T16:05:20.041Z,3.50
2018-11-12T16:07:48.619Z,3.53
2018-11-12T16:10:19.717Z,3.37
2018-11-12T16:12:48.307Z,3.27
2018-11-12T16:15:18.262Z,3.80
2018-11-12T16:17:46.736Z,3.50
2018-11-12T16:20:18.404Z,4.00
2018-11-12T16:22:47.705Z,3.83
2018-11-12T16:25:17.314Z,5.33
2018-11-12T16:27:45.919Z,5.20
2018-11-12T16:30:14.771Z,5.73
2018-11-12T16:32:44.006Z,6.87
2018-11-12T16:35:15.537Z,7.50
2018-11-12T16:37:44.932Z,8.10
2018-11-12T16:40:13.797Z,7.50
2018-11-12T16:42:43.349Z,8.87
2018-11-12T16:45:12.743Z,9.83
2018-11-12T16:47:41.229Z,9.20
2018-11-12T16:50:10.843Z,10.13
2018-11-12T16:52:42.289Z,10.17
2018-11-12T16:55:13.465Z,9.13
2018-11-12T16:57:42.320Z,8.40
2018-11-12T17:00:13.173Z,9.50
2018-11-12T17:02:42.345Z,10.60
2018-11-12T17:05:13.358Z,10.73
2018-11-12T17:07:41.862Z,18.03
2018-11-12T17:10:12.228Z,30.30
2018-11-12T17:12:41.920Z,24.20
2018-11-12T17:15:11.946Z,24.90
2018-11-12T17:17:40.780Z,13.60
2018-11-12T17:20:11.429Z,11.40
2018-11-12T17:22:40.173Z,11.43
2018-11-12T17:25:09.852Z,11.23
2018-11-12T17:27:38.443Z,11.43
2018-11-12T17:30:12.160Z,10.93
2018-11-12T17:32:41.266Z,12.87
2018-11-12T17:35:11.547Z,12.30
2018-11-12T17:37:40.100Z,16.33
2018-11-12T17:40:14.467Z,16.77
2018-11-12T17:42:43.485Z,15.07
2018-11-12T17:45:15.302Z,15.27
2018-11-12T17:47:45.204Z,17.20
2018-11-12T17:50:14.649Z,17.70
2018-11-12T17:52:43.883Z,15.37
2018-11-12T17:55:13.727Z,14.23
2018-11-12T17:57:42.328Z,14.77
2018-11-12T18:00:15.331Z,14.60
2018-11-12T18:02:43.887Z,15.37
2018-11-12T18:05:12.485Z,16.30
2018-11-12T18:07:42.161Z,16.03
2018-11-12T18:10:11.610Z,17.00
2018-11-12T18:12:40.460Z,16.10
2018-11-12T18:15:12.078Z,15.10
2018-11-12T18:17:40.832Z,16.10
2018-11-12T18:20:12.597Z,15.90
2018-11-12T18:22:41.184Z,16.23
2018-11-12T18:25:11.090Z,16.43
2018-11-12T18:27:40.513Z,16.77
2018-11-12T18:30:11.561Z,20.17
2018-11-12T18:32:40.347Z,20.37
2018-11-12T18:35:09.862Z,20.03
2018-11-12T18:37:38.727Z,19.40
2018-11-12T18:40:09.444Z,15.23
2018-11-12T18:42:37.978Z,16.03
2018-11-12T18:45:08.794Z,15.37
2018-11-12T18:47:38.557Z,14.33
2018-11-12T18:50:09.434Z,13.90
2018-11-12T18:52:38.048Z,13.53
2018-11-12T18:55:07.537Z,13.03
2018-11-12T18:57:36.198Z,14.13
2018-11-12T19:00:05.654Z,14.93
2018-11-12T19:02:35.517Z,13.97
2018-11-12T19:05:04.304Z,13.40
2018-11-12T19:07:33.647Z,13.37
2018-11-12T19:10:02.421Z,12.67
2018-11-12T19:12:31.483Z,13.23
2018-11-12T19:15:00.113Z,11.87
2018-11-12T19:17:28.608Z,12.47
2018-11-12T19:19:57.701Z,12.13
2018-11-12T19:22:26.258Z,12.50
2018-11-12T19:24:54.849Z,12.10
2018-11-12T19:27:23.357Z,12.10
2018-11-12T19:29:52.635Z,12.30
2018-11-12T19:32:21.118Z,12.77
2018-11-12T19:34:49.654Z,13.13
2018-11-12T19:37:18.237Z,12.50
2018-11-12T19:39:46.819Z,13.00
2018-11-12T19:42:15.382Z,14.57
2018-11-12T19:44:43.935Z,14.80
2018-11-12T19:47:12.511Z,15.57
2018-11-12T19:49:41.136Z,16.00
2018-11-12T19:52:09.837Z,15.90
2018-11-12T19:54:38.994Z,16.47
2018-11-12T19:57:07.563Z,17.20
2018-11-12T19:59:37.993Z,15.80
2018-11-12T20:02:06.483Z,17.07
2018-11-12T20:04:35.704Z,15.50
2018-11-12T20:07:05.589Z,16.53
2018-11-12T20:09:34.206Z,14.53
2018-11-12T20:12:02.864Z,15.20
2018-11-12T20:14:31.377Z,15.13
2018-11-12T20:16:59.891Z,15.10
2018-11-12T20:19:28.428Z,14.63
2018-11-12T20:21:56.985Z,14.43
2018-11-12T20:24:28.240Z,15.33
2018-11-12T20:26:56.839Z,14.27
2018-11-12T20:29:29.349Z,13.53
2018-11-12T20:31:57.874Z,13.17
2018-11-12T20:34:28.935Z,12.47
2018-11-12T20:36:57.442Z,11.30
2018-11-12T20:39:25.930Z,11.70
2018-11-12T20:41:55.616Z,11.23
2018-11-12T20:44:26.004Z,11.10
2018-11-12T20:46:54.542Z,11.07
2018-11-12T20:49:23.088Z,11.30
2018-11-12T20:51:52.688Z,10.27
2018-11-12T20:54:21.189Z,11.00
2018-11-12T20:56:50.130Z,10.33
2018-11-12T20:59:18.645Z,10.07
2018-11-12T21:01:47.468Z,9.53
2018-11-12T21:04:15.995Z,9.17
2018-11-12T21:06:46.669Z,10.60
2018-11-12T21:09:15.339Z,9.57
2018-11-12T21:11:43.856Z,9.90
2018-11-12T21:14:12.454Z,9.50
2018-11-12T21:16:41.103Z,9.60
2018-11-12T21:19:10.424Z,9.27
2018-11-12T21:21:40.287Z,8.77
2018-11-12T21:24:08.845Z,7.80
2018-11-12T21:26:37.590Z,9.40
2018-11-12T21:29:06.538Z,9.97
2018-11-12T21:31:35.068Z,9.37
2018-11-12T21:34:04.483Z,9.50
2018-11-12T21:36:32.971Z,8.30
2018-11-12T21:39:01.645Z,7.73
2018-11-12T21:41:33.882Z,8.03
2018-11-12T21:44:04.686Z,7.73
2018-11-12T21:46:34.716Z,7.33
2018-11-12T21:49:03.328Z,7.57
2018-11-12T21:51:31.887Z,8.63
2018-11-12T21:54:00.614Z,7.97
2018-11-12T21:56:29.095Z,8.43
2018-11-12T21:58:57.576Z,7.97
2018-11-12T22:01:26.075Z,7.60
2018-11-12T22:03:54.572Z,7.80
2018-11-12T22:06:23.032Z,7.97
2018-11-12T22:08:51.768Z,7.10
2018-11-12T22:11:20.331Z,7.20
2018-11-12T22:13:48.805Z,6.63
2018-11-12T22:16:17.333Z,7.43
2018-11-12T22:18:45.870Z,7.10
2018-11-12T22:21:15.570Z,7.20
2018-11-12T22:23:45.342Z,7.37
2018-11-12T22:26:14.804Z,6.73
2018-11-12T22:28:43.398Z,7.17
2018-11-12T22:31:11.941Z,7.50
2018-11-12T22:33:40.447Z,7.27
2018-11-12T22:36:09.065Z,7.33
2018-11-12T22:38:37.595Z,7.20
2018-11-12T22:41:07.524Z,7.30
2018-11-12T22:43:36.004Z,7.57
2018-11-12T22:46:04.627Z,8.30
2018-11-12T22:48:33.159Z,7.63
2018-11-12T22:51:03.361Z,7.97
2018-11-12T22:53:31.863Z,8.27
2018-11-12T22:56:00.431Z,8.00
2018-11-12T22:58:28.931Z,8.47
2018-11-12T23:01:01.633Z,8.60
2018-11-12T23:03:30.118Z,10.00
2018-11-12T23:06:03.925Z,8.80
2018-11-12T23:08:32.466Z,9.13
2018-11-12T23:11:00.962Z,9.20
2018-11-12T23:13:30.606Z,8.57
2018-11-12T23:15:59.101Z,8.90
2018-11-12T23:18:27.592Z,8.70
2018-11-12T23:20:56.091Z,8.60
2018-11-12T23:23:24.696Z,8.93
2018-11-12T23:25:53.263Z,8.70
2018-11-12T23:28:22.971Z,8.67
2018-11-12T23:30:51.454Z,8.63
2018-11-12T23:33:19.953Z,8.53
2018-11-12T23:35:48.447Z,9.40
2018-11-12T23:38:16.906Z,8.47
2018-11-12T23:40:45.450Z,8.60
2018-11-12T23:43:15.099Z,8.57
2018-11-12T23:45:43.612Z,8.60
2018-11-12T23:48:12.112Z,8.83
2018-11-12T23:50:40.654Z,8.53
2018-11-12T23:53:09.133Z,8.53
2018-11-12T23:55:37.632Z,9.03
2018-11-12T23:58:06.117Z,8.90
